Kezdőlap
METAR-TAF:

METAR-TAF

Repülőterek :

Grise Fiord, Nunavut, Kanada

földrajzi szélesség: 76-25N, földrajzi hosszúság: 082-54W, magasság: 45 m

Jelenlegi meteorológiai megfigyelések

A jelentés 16 órával és 6 perccel ezelõtt készült, 20:00 UTC
Nyugati szél 7 kt, déli és északnyugati között változik
Hőmérséklet 4°C
Páratartalom 70%
Légköri nyomás 1015 hPa
Látótávolság: 24.1 km
Kevés felhő 3000 lábon
Kevés felhő 10000 lábon
Kevés felhő 24000 lábon

METAR: CWGZ 182000Z 27007KT 170V310 15SM FEW030 FEW100 FEW240 04/M01 A2998 RMK SC1AC1CI1 SC TR AC TR LAST STFD OBS/NEXT 191200 UTC SLP157

Idő: 08:06 (12:06 UTC)


TAF: hiányzik

Meteorológiai megfigyelések és előrejelzések több, mint 4000 repülőtéren (METAR és TAF jelentéseket).

A térképen piros és sárga pontok jelzik az elérhető meteorológiai állomásokat.

Mozgassa az egeret a pont fölött, hogy megjelenjen az állomás neve.

Azután kattintson az időjárási megfigyelések és előrejelzések megtekintéséhez.

A térkép megváltoztatása: kattintson a fekete keresztel jelölt zöld gombra ráközelítéshez, a vonallal jelölt zöld gombra távolításhoz, vagy a zöld nyilakra a szomszédos térképek eléréséhez.


METAR-TAF: